»·PEaware :: N275ND KBUR-KLAS

N275ND :: KBUR-KLAS

FLIGHT INFORMATION

Flight Status: Arrived
Operator: Privately registered:
United States
More flights under this callsign
Pilot: John A. (19135)
Aircraft: CESSNA 172 SKYHAWK
(C172)
More flights by this aircraft type
Origin: KBUR Bob Hope-Burbank
United States
Destination: KLAS McCarran Intl
United States
More flights between these airports :: More routes between these airports
Route: +VNY3 DAG CRESO4
File this flight plan on PilotEdge
Remarks: IFR TO LOS VEGAS
Altitude:
(Current/Filed)
11,000ft
Speed:
(Current/Filed)
120kts
Departed: 06-Aug-19 07:35 AM
Arrived: 06-Aug-19 10:25 AM
Distance/Time
Traveled:
193nm/2:50
Distance/Time
To Go:
Arrived

Flight Plot

Page will automatically refresh every two minutes.

Flight plan parsing failed; only flown route is shown


Map Options




Map Legend


Flown Route
Filed Route
Departure Airport
Arrival Airport
Navaid (VOR, NDB)
Fix

Horizontal Profiles

Position Reports

Time Latitude Longitude Heading Altitude Ground
Speed
06-Aug-19 07:15 34.196339 -118.367564 358 780ft 0kts
06-Aug-19 07:16 34.196339 -118.367564 358 780ft 0kts
06-Aug-19 07:17 34.196339 -118.367564 358 780ft 0kts
06-Aug-19 07:18 34.196339 -118.367564 358 780ft 0kts
06-Aug-19 07:19 34.196339 -118.367564 358 780ft 0kts
06-Aug-19 07:20 34.196339 -118.367564 358 780ft 0kts
06-Aug-19 07:21 34.196339 -118.367564 358 780ft 0kts
06-Aug-19 07:22 34.196339 -118.367564 358 780ft 0kts
06-Aug-19 07:23 34.196339 -118.367564 358 780ft 0kts
06-Aug-19 07:24 34.196339 -118.367564 358 780ft 0kts
06-Aug-19 07:25 34.196339 -118.367564 358 780ft 0kts
06-Aug-19 07:26 34.196339 -118.367564 358 780ft 0kts
06-Aug-19 07:27 34.196339 -118.367564 358 780ft 0kts
06-Aug-19 07:28 34.196339 -118.367564 358 780ft 0kts
06-Aug-19 07:29 34.196339 -118.367564 358 780ft 0kts
06-Aug-19 07:30 34.196513 -118.367340 91 780ft 4kts
06-Aug-19 07:31 34.196885 -118.368062 265 780ft 15kts
06-Aug-19 07:32 34.196944 -118.368665 285 780ft 0kts
06-Aug-19 07:33 34.197885 -118.367641 90 780ft 38kts
06-Aug-19 07:34 34.190289 -118.356560 228 1517ft 67kts
06-Aug-19 07:35 34.176965 -118.373498 216 2269ft 78kts
06-Aug-19 07:36 34.162974 -118.391786 251 3064ft 77kts
06-Aug-19 07:37 34.179744 -118.400460 355 3830ft 72kts
06-Aug-19 07:38 34.200232 -118.405775 350 4504ft 77kts
06-Aug-19 07:39 34.222530 -118.411182 347 5139ft 84kts
06-Aug-19 07:40 34.245564 -118.418885 348 5776ft 88kts
06-Aug-19 07:41 34.269109 -118.425658 346 6391ft 88kts
06-Aug-19 07:42 34.292642 -118.433379 339 6993ft 87kts
06-Aug-19 07:43 34.316610 -118.440481 346 7536ft 89kts
06-Aug-19 07:44 34.340419 -118.449045 346 8055ft 90kts
06-Aug-19 07:45 34.364453 -118.456814 345 8540ft 91kts
06-Aug-19 07:46 34.387540 -118.450926 55 8975ft 93kts
06-Aug-19 07:47 34.403243 -118.426607 53 9422ft 92kts
06-Aug-19 07:48 34.419145 -118.402088 52 9837ft 93kts
06-Aug-19 07:49 34.435025 -118.377403 52 10234ft 93kts
06-Aug-19 07:50 34.449816 -118.351595 71 10604ft 94kts
06-Aug-19 07:51 34.465909 -118.326690 46 10925ft 98kts
06-Aug-19 07:52 34.484050 -118.296885 51 10940ft 116kts
06-Aug-19 07:53 34.504252 -118.265811 47 11032ft 116kts
06-Aug-19 07:54 34.524316 -118.232664 55 10908ft 127kts
06-Aug-19 07:55 34.544097 -118.198782 47 10913ft 125kts
06-Aug-19 07:56 34.565983 -118.166738 58 10917ft 122kts
06-Aug-19 07:57 34.586836 -118.134006 56 10925ft 121kts
06-Aug-19 07:58 34.605458 -118.100024 52 10956ft 121kts
06-Aug-19 07:59 34.627132 -118.068794 57 10978ft 121kts
06-Aug-19 08:00 34.632830 -118.028498 74 10960ft 123kts
06-Aug-19 08:01 34.638900 -117.988318 81 11007ft 121kts
06-Aug-19 08:02 34.643566 -117.947619 83 11026ft 121kts
06-Aug-19 08:03 34.648155 -117.907142 81 11046ft 122kts
06-Aug-19 08:04 34.652350 -117.866265 88 10985ft 127kts
06-Aug-19 08:05 34.656406 -117.823215 71 10825ft 130kts
06-Aug-19 08:06 34.661641 -117.781939 83 10882ft 122kts
06-Aug-19 08:07 34.669801 -117.741348 68 10822ft 124kts
06-Aug-19 08:08 34.680520 -117.703125 71 10948ft 118kts
06-Aug-19 08:09 34.689469 -117.664238 70 10956ft 123kts
06-Aug-19 08:10 34.699180 -117.624240 72 10921ft 125kts
06-Aug-19 08:11 34.709085 -117.583952 67 10882ft 125kts
06-Aug-19 08:12 34.719729 -117.544502 79 10899ft 123kts
06-Aug-19 08:13 34.730257 -117.505235 73 10923ft 122kts
06-Aug-19 08:14 34.740256 -117.465852 71 10939ft 122kts
06-Aug-19 08:15 34.750547 -117.426470 73 10943ft 122kts
06-Aug-19 08:16 34.759942 -117.386890 76 10965ft 122kts
06-Aug-19 08:17 34.769470 -117.347142 72 10981ft 121kts
06-Aug-19 08:18 34.779898 -117.307752 80 10947ft 125kts
06-Aug-19 08:19 34.789695 -117.268205 73 10998ft 121kts
06-Aug-19 08:20 34.799557 -117.228656 71 11001ft 122kts
06-Aug-19 08:21 34.809533 -117.189191 77 11017ft 122kts
06-Aug-19 08:22 34.817619 -117.149223 74 11033ft 122kts
06-Aug-19 08:23 34.820622 -117.109120 53 10899ft 132kts
06-Aug-19 08:24 34.837128 -117.073917 74 11050ft 117kts
06-Aug-19 08:25 34.848065 -117.034688 72 11005ft 120kts
06-Aug-19 08:26 34.856272 -116.994689 84 11009ft 122kts
06-Aug-19 08:27 34.867095 -116.955986 65 11030ft 122kts
06-Aug-19 08:28 34.878520 -116.917078 70 11049ft 121kts
06-Aug-19 08:29 34.885759 -116.876698 80 11061ft 122kts
06-Aug-19 08:30 34.896288 -116.837473 74 11075ft 122kts
06-Aug-19 08:31 34.903299 -116.797452 59 11063ft 121kts
06-Aug-19 08:32 34.917684 -116.758530 68 10907ft 126kts
06-Aug-19 08:34 34.937076 -116.679178 71 10884ft 125kts
06-Aug-19 08:35 34.947058 -116.640030 66 10990ft 118kts
06-Aug-19 08:36 34.957902 -116.601506 73 11028ft 120kts
06-Aug-19 08:37 34.967137 -116.562464 56 11068ft 121kts
06-Aug-19 08:38 34.982209 -116.526267 65 11124ft 120kts
06-Aug-19 08:39 35.000220 -116.490430 64 10996ft 128kts
06-Aug-19 08:40 35.017573 -116.452847 71 10895ft 127kts
06-Aug-19 08:41 35.025237 -116.411206 54 10862ft 123kts
06-Aug-19 08:43 35.050483 -116.383629 60 10807ft 118kts
06-Aug-19 08:44 35.065877 -116.348114 68 10894ft 115kts
06-Aug-19 08:45 35.080194 -116.310526 63 10824ft 122kts
06-Aug-19 08:46 35.094349 -116.273402 69 10920ft 117kts
06-Aug-19 08:47 35.109178 -116.238043 58 10942ft 122kts
06-Aug-19 08:48 35.125963 -116.201977 57 10962ft 122kts
06-Aug-19 08:49 35.144607 -116.168169 57 10950ft 123kts
06-Aug-19 08:50 35.161259 -116.132053 60 10966ft 123kts
06-Aug-19 08:51 35.176891 -116.094848 63 10974ft 123kts
06-Aug-19 08:52 35.192376 -116.057597 66 10969ft 123kts
06-Aug-19 08:53 35.207112 -116.019970 71 10976ft 122kts
06-Aug-19 08:54 35.219171 -115.980726 65 10974ft 123kts
06-Aug-19 08:56 35.287604 -116.081239 253 925ft 0kts
06-Aug-19 08:59 34.196339 -118.367564 358 780ft 0kts
06-Aug-19 09:00 34.196339 -118.367564 358 780ft 0kts
06-Aug-19 09:01 34.196339 -118.367564 358 780ft 0kts
06-Aug-19 09:02 34.196339 -118.367564 358 780ft 0kts
06-Aug-19 09:02 34.196339 -118.367564 358 780ft 0kts
06-Aug-19 09:04 34.855754 -116.791096 143 1929ft 0kts
06-Aug-19 09:05 34.855754 -116.791096 143 1929ft 0kts
06-Aug-19 09:05 34.855754 -116.791096 143 1929ft 0kts
06-Aug-19 09:07 34.855754 -116.791096 143 1929ft 0kts
06-Aug-19 09:07 34.855754 -116.791096 143 1929ft 0kts
06-Aug-19 09:08 34.855754 -116.791096 143 1929ft 0kts
06-Aug-19 09:10 34.855026 -116.790941 174 1929ft 16kts
06-Aug-19 09:10 34.856123 -116.788718 45 1929ft 2kts
06-Aug-19 09:11 34.857472 -116.785221 141 1929ft 6kts
06-Aug-19 09:12 34.857553 -116.784487 47 1929ft 26kts
06-Aug-19 09:13 34.869335 -116.766740 64 2545ft 73kts
06-Aug-19 09:14 34.878023 -116.745056 61 3294ft 73kts
06-Aug-19 09:15 34.888064 -116.723374 38 3999ft 76kts
06-Aug-19 09:16 34.899292 -116.701916 56 4686ft 75kts
06-Aug-19 09:17 34.909691 -116.679980 50 5320ft 76kts
06-Aug-19 09:18 34.919697 -116.657259 52 5919ft 79kts
06-Aug-19 09:19 34.930274 -116.634544 69 6512ft 77kts
06-Aug-19 09:20 34.941578 -116.607762 58 7013ft 83kts
06-Aug-19 09:21 34.951643 -116.580516 66 7526ft 86kts
06-Aug-19 09:22 34.964207 -116.554415 58 8029ft 88kts
06-Aug-19 09:23 34.977572 -116.529871 62 8495ft 88kts
06-Aug-19 09:24 34.989688 -116.504517 59 8976ft 85kts
06-Aug-19 09:25 35.002312 -116.479853 59 9405ft 84kts
06-Aug-19 09:26 35.012364 -116.454463 61 9824ft 81kts
06-Aug-19 09:27 35.023331 -116.429910 59 10201ft 83kts
06-Aug-19 09:28 35.034692 -116.405282 56 10566ft 83kts
06-Aug-19 09:29 35.046095 -116.380882 64 10911ft 83kts
06-Aug-19 09:30 35.059422 -116.354503 71 10954ft 94kts
06-Aug-19 09:31 35.072865 -116.326708 59 11100ft 97kts
06-Aug-19 09:32 35.087106 -116.294082 65 10951ft 116kts
06-Aug-19 09:33 35.101983 -116.260356 61 10958ft 115kts
06-Aug-19 09:34 35.115360 -116.225786 60 10995ft 112kts
06-Aug-19 09:35 35.130144 -116.191981 65 11008ft 113kts
06-Aug-19 09:36 35.144100 -116.157682 64 11024ft 112kts
06-Aug-19 09:37 35.158301 -116.123624 62 11027ft 113kts
06-Aug-19 09:38 35.172621 -116.089437 61 11036ft 113kts
06-Aug-19 09:39 35.186883 -116.055308 65 11054ft 112kts
06-Aug-19 09:40 35.201258 -116.021271 62 11056ft 113kts
06-Aug-19 09:41 35.216093 -115.986982 62 11028ft 115kts
06-Aug-19 09:42 35.232169 -115.953449 60 11019ft 114kts
06-Aug-19 09:43 35.247544 -115.919399 61 11011ft 114kts
06-Aug-19 09:44 35.262098 -115.884834 61 11002ft 114kts
06-Aug-19 09:45 35.277432 -115.850787 60 11002ft 114kts
06-Aug-19 09:46 35.292973 -115.816740 63 10993ft 115kts
06-Aug-19 09:47 35.308965 -115.783190 47 10992ft 115kts
06-Aug-19 09:48 35.330592 -115.754671 44 10995ft 115kts
06-Aug-19 09:49 35.351560 -115.725404 51 10973ft 117kts
06-Aug-19 09:50 35.373991 -115.694817 50 10522ft 117kts
06-Aug-19 09:51 35.395343 -115.664714 51 10108ft 122kts
06-Aug-19 09:52 35.414262 -115.635431 47 10155ft 106kts
06-Aug-19 09:53 35.434756 -115.609371 43 10199ft 104kts
06-Aug-19 09:54 35.453641 -115.582657 47 9947ft 111kts
06-Aug-19 09:55 35.473164 -115.556105 47 9814ft 117kts
06-Aug-19 09:56 35.495676 -115.527292 46 9608ft 120kts
06-Aug-19 09:57 35.513332 -115.500387 51 9935ft 105kts
06-Aug-19 09:58 35.531208 -115.471307 52 9841ft 107kts
06-Aug-19 09:59 35.550744 -115.444051 50 9404ft 105kts
06-Aug-19 10:00 35.569964 -115.416408 52 8796ft 105kts
06-Aug-19 10:01 35.588139 -115.388163 51 8235ft 105kts
06-Aug-19 10:02 35.607345 -115.361257 46 7727ft 104kts
06-Aug-19 10:03 35.629028 -115.337674 42 7384ft 103kts
06-Aug-19 10:04 35.650083 -115.313836 43 7164ft 100kts
06-Aug-19 10:05 35.670055 -115.288731 47 7131ft 102kts
06-Aug-19 10:06 35.689154 -115.262730 50 7109ft 102kts
06-Aug-19 10:07 35.708181 -115.236784 50 7088ft 102kts
06-Aug-19 10:08 35.727365 -115.211007 35 7061ft 103kts
06-Aug-19 10:09 35.754330 -115.200066 27 7043ft 102kts
06-Aug-19 10:10 35.781455 -115.191369 8 7045ft 101kts
06-Aug-19 10:11 35.808673 -115.183329 21 7082ft 101kts
06-Aug-19 10:12 35.835726 -115.174421 13 7113ft 102kts
06-Aug-19 10:13 35.863257 -115.165782 15 7147ft 102kts
06-Aug-19 10:14 35.892344 -115.154858 17 6969ft 110kts
06-Aug-19 10:15 35.923133 -115.148732 12 6109ft 105kts
06-Aug-19 10:16 35.951976 -115.142827 9 5488ft 99kts
06-Aug-19 10:17 35.976672 -115.139159 9 5526ft 92kts
06-Aug-19 10:18 36.005559 -115.129855 10 5133ft 93kts
06-Aug-19 10:19 36.029440 -115.129329 356 5585ft 92kts
06-Aug-19 10:20 36.058333 -115.121826 35 5265ft 108kts
06-Aug-19 10:21 36.078578 -115.107145 277 3873ft 103kts
06-Aug-19 10:22 36.081930 -115.139833 339 3100ft 100kts
06-Aug-19 10:23 36.101977 -115.149316 285 2876ft 85kts
06-Aug-19 10:24 36.090986 -115.161461 203 2185ft 23kts
06-Aug-19 10:25 36.089384 -115.163471 293 2185ft 0kts
06-Aug-19 10:26 36.089546 -115.164589 223 2185ft 14kts
06-Aug-19 10:27 36.086852 -115.166128 208 2185ft 0kts
06-Aug-19 10:28 36.086852 -115.166128 208 2185ft 0kts
06-Aug-19 10:29 36.086852 -115.166128 208 2185ft 0kts
06-Aug-19 10:30 36.086852 -115.166128 208 2185ft 0kts

Navigation Log

Ident Type
Flight plan parsing failed, navigation log unavailable